Time;durP1;ratioP1;P1;durP2;ratioP2;P2;SDS_P1;SDS_P2;PMS_P1;PMS_P2;Temp;Humidity;BMP_temperature;BMP_pressure;BME280_temperature;BME280_humidity;BME280_pressure;Samples;Min_cycle;Max_cycle;Signal;HPM_P1;HPM_P2
2021/08/01 00:00:31;;;;;;;;;;;;;;;18.40;100.00;98423.88;5052590;28;20269;-79
2021/08/01 00:02:58;;;;;;;;;;;;;;;18.60;100.00;98416.22;5053606;28;19977;-79
2021/08/01 00:05:25;;;;;;;;;;;;;;;18.25;100.00;98423.88;5053504;28;19933;-79
2021/08/01 00:07:52;;;;;;;;;;;;;;;18.42;100.00;98421.38;5052506;28;19936;-79
2021/08/01 00:10:19;;;;;;;;;;;;;;;18.44;100.00;98425.25;5052413;28;19940;-79
2021/08/01 00:12:47;;;;;;;;;;;;;;;18.33;100.00;98419.38;5052408;28;19933;-79
2021/08/01 00:15:14;;;;;;;;;;;;;;;18.41;100.00;98419.78;5068666;28;20019;-79
2021/08/01 00:17:41;;;;;;;;;;;;;;;17.78;100.00;98413.59;5052391;28;20043;-79
2021/08/01 00:20:08;;;;;;;;;;;;;;;17.36;100.00;98423.56;5052020;28;20309;-79
2021/08/01 00:22:35;;;;;;;;;;;;;;;17.35;100.00;98424.84;5053315;28;19929;-79
2021/08/01 00:25:04;;;;;;;;;;;;;;;17.10;100.00;98426.13;5053505;28;19928;-79
2021/08/01 00:27:35;;;;;;;;;;;;;;;17.50;100.00;98422.84;5053227;28;19932;-79
2021/08/01 00:30:11;;;;;;;;;;;;;;;17.15;100.00;98414.19;5053661;28;20016;-79
2021/08/01 00:32:39;;;;;;;;;;;;;;;16.90;100.00;98411.09;5053157;28;19955;-78
2021/08/01 00:35:07;;;;;;;;;;;;;;;16.73;100.00;98409.97;5053005;28;19924;-79
2021/08/01 00:37:35;;;;;;;;;;;;;;;17.34;100.00;98403.53;5033584;28;19925;-79
2021/08/01 00:40:02;;;;;;;;;;;;;;;17.50;100.00;98405.91;5053226;28;19925;-79
2021/08/01 00:42:29;;;;;;;;;;;;;;;17.53;100.00;98413.41;5053421;28;19931;-79
2021/08/01 00:44:57;;;;;;;;;;;;;;;17.51;100.00;98404.63;5051957;28;20487;-79
2021/08/01 00:47:24;;;;;;;;;;;;;;;17.72;100.00;98409.13;5068810;28;19932;-79
2021/08/01 00:49:51;;;;;;;;;;;;;;;17.39;100.00;98408.47;5051840;28;20015;-79
2021/08/01 00:52:19;;;;;;;;;;;;;;;17.06;100.00;98410.66;5053114;28;20360;-79
2021/08/01 00:54:46;;;;;;;;;;;;;;;17.17;100.00;98410.88;5048768;28;20067;-79
2021/08/01 00:57:14;;;;;;;;;;;;;;;17.60;100.00;98408.13;5038048;28;19960;-79
2021/08/01 00:59:41;;;;;;;;;;;;;;;17.22;100.00;98408.16;5047407;28;20380;-79
2021/08/01 01:02:17;;;;;;;;;;;;;;;17.09;100.00;98406.84;5068735;28;20391;-79
2021/08/01 01:04:55;;;;;;;;;;;;;;;17.38;100.00;98412.56;5051740;28;19971;-79
2021/08/01 01:07:34;;;;;;;;;;;;;;;17.47;100.00;98404.81;5053073;28;19932;-79
2021/08/01 01:10:04;;;;;;;;;;;;;;;17.04;100.00;98404.72;5085147;28;19964;-79
2021/08/01 01:12:47;;;;;;;;;;;;;;;16.50;100.00;98399.44;5051871;28;19932;-79
2021/08/01 01:15:26;;;;;;;;;;;;;;;16.92;100.00;98411.41;5052762;28;19999;-79
2021/08/01 01:17:54;;;;;;;;;;;;;;;17.46;100.00;98396.84;5052609;28;19929;-79
2021/08/01 01:20:40;;;;;;;;;;;;;;;17.58;100.00;98392.97;5051611;28;20361;-79
2021/08/01 01:23:25;;;;;;;;;;;;;;;17.67;100.00;98390.03;5052667;28;20032;-79
2021/08/01 01:26:13;;;;;;;;;;;;;;;17.38;100.00;98387.94;5051452;28;19983;-79
2021/08/01 01:28:56;;;;;;;;;;;;;;;17.30;100.00;98394.44;5052888;28;19925;-79
2021/08/01 01:31:24;;;;;;;;;;;;;;;17.21;100.00;98397.34;5052447;28;19956;-79
2021/08/01 01:33:57;;;;;;;;;;;;;;;17.64;100.00;98393.84;5051547;28;19925;-79
2021/08/01 01:36:26;;;;;;;;;;;;;;;17.11;100.00;98399.50;5052597;28;19925;-79
2021/08/01 01:38:55;;;;;;;;;;;;;;;17.40;100.00;98393.88;5052549;28;19925;-79
2021/08/01 01:41:46;;;;;;;;;;;;;;;17.79;100.00;98395.41;4994201;28;20403;-79
2021/08/01 01:44:17;;;;;;;;;;;;;;;17.55;100.00;98399.56;5012623;28;19926;-79
2021/08/01 01:46:46;;;;;;;;;;;;;;;17.72;100.00;98390.13;5013885;28;19988;-79
2021/08/01 01:49:13;;;;;;;;;;;;;;;17.61;100.00;98389.16;5014184;28;19930;-79
2021/08/01 01:51:48;;;;;;;;;;;;;;;17.67;100.00;98384.38;4997910;28;19925;-79
2021/08/01 01:54:19;;;;;;;;;;;;;;;17.35;100.00;98390.94;4981749;28;20068;-80
2021/08/01 01:56:46;;;;;;;;;;;;;;;17.08;100.00;98388.38;4992110;28;19965;-79
2021/08/01 01:59:14;;;;;;;;;;;;;;;17.23;100.00;98389.19;4986562;28;19937;-79
2021/08/01 02:01:42;;;;;;;;;;;;;;;17.30;100.00;98389.59;4991724;28;19965;-79
2021/08/01 02:04:10;;;;;;;;;;;;;;;17.20;100.00;98395.78;4990927;28;20394;-79
2021/08/01 02:07:06;;;;;;;;;;;;;;;17.44;100.00;98388.06;4987638;28;19929;-79
2021/08/01 02:09:41;;;;;;;;;;;;;;;17.69;100.00;98382.63;4974922;28;19926;-80
2021/08/01 02:12:30;;;;;;;;;;;;;;;17.34;100.00;98392.22;4965561;28;19927;-79
2021/08/01 02:15:04;;;;;;;;;;;;;;;17.28;100.00;98385.69;4973987;28;19926;-79
2021/08/01 02:17:37;;;;;;;;;;;;;;;17.47;100.00;98382.25;4974102;28;19926;-80
2021/08/01 02:20:07;;;;;;;;;;;;;;;17.46;100.00;98389.13;5011550;28;20361;-79
2021/08/01 02:22:39;;;;;;;;;;;;;;;16.61;100.00;98391.22;5008312;28;19925;-79
2021/08/01 02:25:07;;;;;;;;;;;;;;;16.65;100.00;98389.78;5000501;28;19932;-79
2021/08/01 02:27:35;;;;;;;;;;;;;;;16.89;100.00;98401.09;5033502;28;19984;-79
2021/08/01 02:30:03;;;;;;;;;;;;;;;16.93;100.00;98398.84;5049302;28;19933;-79
2021/08/01 02:32:33;;;;;;;;;;;;;;;16.79;100.00;98393.94;5013400;28;19932;-79
2021/08/01 02:35:01;;;;;;;;;;;;;;;16.95;100.00;98391.44;5028197;28;19925;-79
2021/08/01 02:37:29;;;;;;;;;;;;;;;17.28;100.00;98394.16;5016510;28;19925;-79
2021/08/01 02:39:56;;;;;;;;;;;;;;;17.42;100.00;98384.91;5013179;28;20038;-79
2021/08/01 02:42:24;;;;;;;;;;;;;;;17.47;100.00;98390.72;5012854;28;19931;-79
2021/08/01 02:44:55;;;;;;;;;;;;;;;16.85;100.00;98389.19;5046674;28;19924;-79
2021/08/01 02:47:24;;;;;;;;;;;;;;;16.93;100.00;98404.50;5054203;28;19925;-79
2021/08/01 02:49:54;;;;;;;;;;;;;;;16.34;100.00;98397.78;5053993;28;20075;-79
2021/08/01 02:52:26;;;;;;;;;;;;;;;15.72;100.00;98403.19;5053841;28;19963;-79
2021/08/01 02:54:54;;;;;;;;;;;;;;;16.00;100.00;98407.50;5055156;28;19963;-79
2021/08/01 02:57:22;;;;;;;;;;;;;;;16.52;100.00;98413.84;5020203;28;19925;-79
2021/08/01 02:59:50;;;;;;;;;;;;;;;16.57;100.00;98404.75;5044607;28;20281;-79
2021/08/01 03:02:18;;;;;;;;;;;;;;;16.19;100.00;98403.34;5048786;28;19987;-79
2021/08/01 03:04:57;;;;;;;;;;;;;;;16.14;100.00;98406.03;5053749;28;19986;-79
2021/08/01 03:07:27;;;;;;;;;;;;;;;15.95;100.00;98408.13;5053606;28;20330;-79
2021/08/01 03:09:54;;;;;;;;;;;;;;;16.18;100.00;98398.19;5070494;28;19929;-79
2021/08/01 03:12:21;;;;;;;;;;;;;;;16.50;100.00;98396.63;5053431;28;20375;-79
2021/08/01 03:14:49;;;;;;;;;;;;;;;16.41;100.00;98396.66;5053354;28;19925;-79
2021/08/01 03:17:16;;;;;;;;;;;;;;;16.17;100.00;98394.59;5054755;28;19925;-79
2021/08/01 03:19:44;;;;;;;;;;;;;;;16.53;100.00;98398.47;5069907;28;19925;-79
2021/08/01 03:22:13;;;;;;;;;;;;;;;16.71;100.00;98389.91;5053396;28;19925;-79
2021/08/01 03:24:41;;;;;;;;;;;;;;;16.53;100.00;98399.28;5054390;28;19924;-79
2021/08/01 03:27:16;;;;;;;;;;;;;;;16.59;100.00;98399.38;5054337;28;19925;-79
2021/08/01 03:29:44;;;;;;;;;;;;;;;16.40;100.00;98406.38;5046147;28;19925;-80
2021/08/01 03:32:18;;;;;;;;;;;;;;;16.31;100.00;98397.97;5054989;28;19925;-81
2021/08/01 03:34:48;;;;;;;;;;;;;;;15.66;100.00;98399.47;5053742;28;20399;-81
2021/08/01 03:37:24;;;;;;;;;;;;;;;16.43;100.00;98411.06;5053671;28;19925;-81
2021/08/01 03:40:29;;;;;;;;;;;;;;;16.20;100.00;98399.28;4990023;28;19933;-81
2021/08/01 03:42:57;;;;;;;;;;;;;;;16.18;100.00;98401.00;4990150;28;20005;-81
2021/08/01 03:45:24;;;;;;;;;;;;;;;16.13;100.00;98388.34;5012170;28;19926;-79
2021/08/01 03:47:51;;;;;;;;;;;;;;;16.25;100.00;98390.16;4990007;28;19926;-79
2021/08/01 03:50:19;;;;;;;;;;;;;;;16.63;100.00;98386.66;5011566;28;19926;-79
2021/08/01 03:52:46;;;;;;;;;;;;;;;16.46;100.00;98385.53;4992077;28;19926;-79
2021/08/01 03:55:13;;;;;;;;;;;;;;;16.09;100.00;98382.09;5004822;28;20160;-78
2021/08/01 03:57:40;;;;;;;;;;;;;;;16.63;100.00;98385.91;5011476;28;19925;-79
2021/08/01 04:00:07;;;;;;;;;;;;;;;16.22;100.00;98396.75;5010880;28;19946;-78
2021/08/01 04:02:38;;;;;;;;;;;;;;;16.29;100.00;98398.44;4993705;28;19945;-78
2021/08/01 04:05:06;;;;;;;;;;;;;;;16.09;100.00;98393.38;5011309;28;19991;-78
2021/08/01 04:07:33;;;;;;;;;;;;;;;16.07;100.00;98401.50;5010453;28;19929;-78
2021/08/01 04:10:00;;;;;;;;;;;;;;;16.14;100.00;98406.81;5027610;28;19933;-79
2021/08/01 04:12:27;;;;;;;;;;;;;;;16.38;100.00;98404.03;5050127;28;20300;-79
2021/08/01 04:14:54;;;;;;;;;;;;;;;16.75;100.00;98401.81;5039922;28;19931;-79
2021/08/01 04:17:23;;;;;;;;;;;;;;;16.53;100.00;98398.47;5053674;28;20093;-79
2021/08/01 04:19:51;;;;;;;;;;;;;;;16.34;100.00;98397.00;5032132;28;19940;-79
2021/08/01 04:22:18;;;;;;;;;;;;;;;16.11;100.00;98395.72;5044278;28;19971;-79
2021/08/01 04:24:45;;;;;;;;;;;;;;;16.02;100.00;98404.97;5052155;28;19924;-79
2021/08/01 04:27:12;;;;;;;;;;;;;;;16.05;100.00;98404.00;5068778;28;19925;-79
2021/08/01 04:29:39;;;;;;;;;;;;;;;16.20;100.00;98404.91;5053199;28;19925;-79
2021/08/01 04:32:06;;;;;;;;;;;;;;;15.52;100.00;98410.59;5053537;28;19929;-79
2021/08/01 04:34:33;;;;;;;;;;;;;;;15.65;100.00;98408.38;5052228;28;19935;-79
2021/08/01 04:37:00;;;;;;;;;;;;;;;15.61;100.00;98408.56;5039310;28;20292;-79
2021/08/01 04:39:28;;;;;;;;;;;;;;;16.05;100.00;98420.91;5053164;28;20062;-79
2021/08/01 04:41:55;;;;;;;;;;;;;;;16.19;100.00;98411.78;5031864;28;20033;-79
2021/08/01 04:44:22;;;;;;;;;;;;;;;16.32;100.00;98411.59;5044103;28;19924;-79
2021/08/01 04:46:49;;;;;;;;;;;;;;;16.58;100.00;98428.84;5051719;28;19968;-79
2021/08/01 04:49:16;;;;;;;;;;;;;;;16.23;100.00;98423.69;5053302;28;19925;-79
2021/08/01 04:51:43;;;;;;;;;;;;;;;16.43;100.00;98417.47;5051814;28;19929;-79
2021/08/01 04:54:10;;;;;;;;;;;;;;;16.45;100.00;98408.56;5052989;28;20380;-79
2021/08/01 04:56:42;;;;;;;;;;;;;;;15.80;100.00;98414.91;5053053;28;19925;-79
2021/08/01 04:59:09;;;;;;;;;;;;;;;15.47;100.00;98426.09;5053374;28;19932;-79
2021/08/01 05:01:36;;;;;;;;;;;;;;;16.41;100.00;98424.84;5053003;28;19952;-79
2021/08/01 05:04:04;;;;;;;;;;;;;;;16.61;100.00;98431.50;5051715;28;19929;-79
2021/08/01 05:06:31;;;;;;;;;;;;;;;16.81;100.00;98426.03;5053054;28;19931;-79
2021/08/01 05:08:58;;;;;;;;;;;;;;;16.44;100.00;98429.56;5052400;28;20016;-79
2021/08/01 05:11:25;;;;;;;;;;;;;;;16.61;100.00;98436.34;5051601;28;19928;-79
2021/08/01 05:13:52;;;;;;;;;;;;;;;16.92;100.00;98431.16;5051860;28;19950;-79
2021/08/01 05:16:20;;;;;;;;;;;;;;;17.11;100.00;98424.09;5051704;28;20444;-79
2021/08/01 05:18:47;;;;;;;;;;;;;;;17.27;100.00;98434.94;5054517;28;20429;-79
2021/08/01 05:21:19;;;;;;;;;;;;;;;16.79;100.00;98422.13;5056661;28;19925;-79
2021/08/01 05:23:46;;;;;;;;;;;;;;;16.03;100.00;98431.91;5056835;28;19994;-79
2021/08/01 05:26:14;;;;;;;;;;;;;;;16.00;100.00;98430.03;5055556;28;20384;-79
2021/08/01 05:28:41;;;;;;;;;;;;;;;16.15;100.00;98439.38;5055499;28;19925;-79
2021/08/01 05:31:08;;;;;;;;;;;;;;;16.43;100.00;98440.03;5056724;28;20316;-79
2021/08/01 05:33:35;;;;;;;;;;;;;;;16.83;100.00;98445.28;5056611;28;19952;-79
2021/08/01 05:36:08;;;;;;;;;;;;;;;16.97;100.00;98445.38;5056609;28;20015;-79
2021/08/01 05:38:36;;;;;;;;;;;;;;;16.82;100.00;98446.56;5056487;28;19925;-79
2021/08/01 05:41:03;;;;;;;;;;;;;;;16.70;100.00;98453.22;5055327;28;20019;-79
2021/08/01 05:43:31;;;;;;;;;;;;;;;16.64;100.00;98455.13;5056246;28;19925;-79
2021/08/01 05:45:58;;;;;;;;;;;;;;;16.30;100.00;98461.25;5055195;28;20382;-79
2021/08/01 05:48:25;;;;;;;;;;;;;;;16.32;100.00;98450.25;5056343;28;20396;-78
2021/08/01 05:50:52;;;;;;;;;;;;;;;16.27;100.00;98439.66;5056443;28;19928;-79
2021/08/01 05:53:24;;;;;;;;;;;;;;;16.12;100.00;98443.16;5056034;28;19993;-78
2021/08/01 05:55:52;;;;;;;;;;;;;;;16.06;100.00;98447.06;5035125;28;20292;-78
2021/08/01 05:58:19;;;;;;;;;;;;;;;15.75;100.00;98446.56;5049658;28;20009;-78
2021/08/01 06:00:46;;;;;;;;;;;;;;;15.80;100.00;98446.69;5055888;28;20319;-79
2021/08/01 06:03:13;;;;;;;;;;;;;;;15.77;100.00;98453.25;5056158;28;20443;-78
2021/08/01 06:05:40;;;;;;;;;;;;;;;15.83;100.00;98453.41;5054708;28;19925;-77
2021/08/01 06:08:07;;;;;;;;;;;;;;;15.89;100.00;98452.28;5055802;28;20380;-79
2021/08/01 06:10:34;;;;;;;;;;;;;;;16.12;100.00;98454.41;5056250;28;19975;-79
2021/08/01 06:13:01;;;;;;;;;;;;;;;16.45;100.00;98457.28;5054825;28;19948;-80
2021/08/01 06:15:28;;;;;;;;;;;;;;;16.58;100.00;98452.22;5055079;28;20292;-79
2021/08/01 06:17:55;;;;;;;;;;;;;;;16.62;100.00;98446.38;5054598;28;19951;-79
2021/08/01 06:20:23;;;;;;;;;;;;;;;16.94;100.00;98451.97;5046957;28;20002;-80
2021/08/01 06:22:50;;;;;;;;;;;;;;;17.58;100.00;98449.44;5030998;28;20280;-80
2021/08/01 06:25:17;;;;;;;;;;;;;;;17.88;100.00;98446.16;5034971;28;19971;-82
2021/08/01 06:27:45;;;;;;;;;;;;;;;18.05;100.00;98446.44;5070800;28;20035;-81
2021/08/01 06:30:12;;;;;;;;;;;;;;;18.00;100.00;98447.13;5013161;28;19931;-81
2021/08/01 06:32:40;;;;;;;;;;;;;;;17.89;100.00;98463.88;5046435;28;20044;-81
2021/08/01 06:35:07;;;;;;;;;;;;;;;17.98;100.00;98466.59;5021274;28;19925;-80
2021/08/01 06:37:34;;;;;;;;;;;;;;;18.39;100.00;98462.69;5034267;28;19952;-80
2021/08/01 06:40:03;;;;;;;;;;;;;;;18.49;100.00;98467.00;5038376;28;19929;-80
2021/08/01 06:42:31;;;;;;;;;;;;;;;18.00;100.00;98469.72;5038477;28;20372;-80
2021/08/01 06:46:18;;;;;;;;;;;;;;;17.78;100.00;98463.69;5091889;28;19919;-81
2021/08/01 06:48:45;;;;;;;;;;;;;;;17.78;100.00;98463.69;5090811;28;19963;-80
2021/08/01 06:51:13;;;;;;;;;;;;;;;18.04;100.00;98463.88;5090253;28;20017;-79
2021/08/01 06:53:39;;;;;;;;;;;;;;;18.21;100.00;98460.06;5104642;28;19943;-80
2021/08/01 06:56:07;;;;;;;;;;;;;;;18.58;100.00;98466.06;5081483;28;19935;-82
2021/08/01 06:58:34;;;;;;;;;;;;;;;18.90;100.00;98467.84;5074108;28;19928;-81
2021/08/01 07:01:02;;;;;;;;;;;;;;;18.12;100.00;98465.03;5042731;28;19925;-85
2021/08/01 07:03:29;;;;;;;;;;;;;;;18.59;100.00;98476.91;5064711;28;19929;-82
2021/08/01 07:05:57;;;;;;;;;;;;;;;18.71;100.00;98463.69;5068909;28;19956;-81
2021/08/01 07:08:24;;;;;;;;;;;;;;;18.73;100.00;98478.13;5087199;28;20463;-83
2021/08/01 07:10:52;;;;;;;;;;;;;;;18.83;100.00;98486.00;5035718;28;19924;-83
2021/08/01 07:13:19;;;;;;;;;;;;;;;18.84;100.00;98484.72;5047040;28;20299;-83
2021/08/01 07:15:48;;;;;;;;;;;;;;;18.77;100.00;98485.16;5060676;28;20391;-80
2021/08/01 07:18:16;;;;;;;;;;;;;;;18.58;100.00;98489.50;5050503;28;19936;-83
2021/08/01 07:20:47;;;;;;;;;;;;;;;18.61;100.00;98485.69;5067816;28;19960;-89
2021/08/01 07:23:14;;;;;;;;;;;;;;;18.60;100.00;98495.44;5049990;28;20451;-86
2021/08/01 07:25:42;;;;;;;;;;;;;;;18.22;100.00;98504.03;5083498;28;20348;-81
2021/08/01 07:28:09;;;;;;;;;;;;;;;18.58;100.00;98498.00;5067129;28;19968;-81
2021/08/01 07:30:36;;;;;;;;;;;;;;;18.44;100.00;98489.50;5067385;28;19924;-81
2021/08/01 07:33:04;;;;;;;;;;;;;;;18.39;100.00;98496.63;5067941;28;19929;-81
2021/08/01 07:35:31;;;;;;;;;;;;;;;18.31;100.00;98495.44;5099733;28;19935;-81
2021/08/01 07:37:59;;;;;;;;;;;;;;;18.19;100.00;98504.25;5067394;28;19924;-85
2021/08/01 07:40:27;;;;;;;;;;;;;;;17.43;100.00;98507.91;5063244;28;20036;-87
2021/08/01 07:42:54;;;;;;;;;;;;;;;17.17;100.00;98515.31;5062775;28;19995;-86
2021/08/01 07:45:24;;;;;;;;;;;;;;;17.10;100.00;98521.34;5059225;28;19932;-85
2021/08/01 07:47:51;;;;;;;;;;;;;;;17.11;100.00;98520.84;5066319;28;20066;-90
2021/08/01 07:50:19;;;;;;;;;;;;;;;16.98;100.00;98522.34;5036319;28;19931;-93
2021/08/01 07:52:46;;;;;;;;;;;;;;;17.08;100.00;98530.28;5049637;28;19982;-89
2021/08/01 07:55:16;;;;;;;;;;;;;;;17.46;100.00;98532.41;5050660;28;19928;-89
2021/08/01 07:57:44;;;;;;;;;;;;;;;17.79;100.00;98538.72;5052249;28;20631;-91
2021/08/01 08:00:12;;;;;;;;;;;;;;;18.18;100.00;98533.75;5050754;28;20402;-81
2021/08/01 08:02:43;;;;;;;;;;;;;;;18.27;100.00;98534.44;5043614;28;19925;-84
2021/08/01 08:05:16;;;;;;;;;;;;;;;18.88;100.00;98533.44;5048469;28;20008;-83
2021/08/01 08:07:55;;;;;;;;;;;;;;;18.38;100.00;98529.03;5068176;28;19925;-82
2021/08/01 08:10:23;;;;;;;;;;;;;;;18.83;100.00;98525.63;5054115;28;19932;-83
2021/08/01 08:12:50;;;;;;;;;;;;;;;18.06;100.00;98526.34;5053396;28;19929;-82
2021/08/01 08:15:17;;;;;;;;;;;;;;;18.06;100.00;98524.31;5046300;28;19979;-81
2021/08/01 08:17:45;;;;;;;;;;;;;;;18.10;100.00;98524.88;5084449;28;19932;-80
2021/08/01 08:20:12;;;;;;;;;;;;;;;18.09;100.00;98523.34;5051222;28;19924;-79
2021/08/01 08:22:40;;;;;;;;;;;;;;;18.64;100.00;98526.34;5048750;28;19932;-80
2021/08/01 08:25:08;;;;;;;;;;;;;;;19.29;100.00;98529.41;5054464;28;19925;-79
2021/08/01 08:27:35;;;;;;;;;;;;;;;19.46;100.00;98516.22;5052937;28;19929;-83
2021/08/01 08:30:03;;;;;;;;;;;;;;;18.86;100.00;98521.03;5084183;28;20371;-80
2021/08/01 08:32:30;;;;;;;;;;;;;;;19.28;100.00;98522.19;5050924;28;19932;-83
2021/08/01 08:34:58;;;;;;;;;;;;;;;19.59;100.00;98522.31;5043945;28;19939;-83
2021/08/01 08:37:26;;;;;;;;;;;;;;;19.58;100.00;98523.59;5051685;28;20011;-90
2021/08/01 08:39:53;;;;;;;;;;;;;;;19.69;100.00;98515.22;5050020;28;20016;-82
2021/08/01 08:42:20;;;;;;;;;;;;;;;19.91;100.00;98517.53;5053069;28;20043;-86
2021/08/01 08:44:47;;;;;;;;;;;;;;;20.32;100.00;98523.88;5050744;28;19929;-83
2021/08/01 08:47:18;;;;;;;;;;;;;;;20.60;100.00;98510.72;5051199;28;20028;-81
2021/08/01 08:49:49;;;;;;;;;;;;;;;20.69;100.00;98510.53;5051145;28;19959;-81
2021/08/01 08:52:19;;;;;;;;;;;;;;;20.86;100.00;98517.09;5050551;28;19924;-81
2021/08/01 08:54:51;;;;;;;;;;;;;;;21.02;100.00;98513.63;5052198;28;19925;-82
2021/08/01 08:57:20;;;;;;;;;;;;;;;21.36;100.00;98515.34;5038990;28;20261;-82
2021/08/01 08:59:53;;;;;;;;;;;;;;;21.51;100.00;98504.56;5052756;28;20027;-82
2021/08/01 09:02:21;;;;;;;;;;;;;;;21.62;100.00;98518.03;5048404;28;19983;-81
2021/08/01 09:04:48;;;;;;;;;;;;;;;21.61;100.00;98514.44;5044634;28;19932;-82
2021/08/01 09:07:15;;;;;;;;;;;;;;;20.73;100.00;98517.53;5050176;28;19925;-81
2021/08/01 09:09:43;;;;;;;;;;;;;;;21.63;100.00;98517.53;5053332;28;19929;-81
2021/08/01 09:12:10;;;;;;;;;;;;;;;20.80;100.00;98511.38;5054763;28;19929;-81
2021/08/01 09:14:37;;;;;;;;;;;;;;;21.70;100.00;98517.06;5054000;28;20367;-81
2021/08/01 09:17:04;;;;;;;;;;;;;;;21.43;100.00;98524.16;5054941;28;19925;-81
2021/08/01 09:19:33;;;;;;;;;;;;;;;21.51;100.00;98515.94;5054970;28;19925;-81
2021/08/01 09:22:12;;;;;;;;;;;;;;;21.98;100.00;98522.81;5053764;28;19928;-81
2021/08/01 09:24:40;;;;;;;;;;;;;;;22.32;100.00;98522.41;5053642;28;19928;-81
2021/08/01 09:27:07;;;;;;;;;;;;;;;22.06;100.00;98516.13;5054798;28;19941;-81
2021/08/01 09:29:48;;;;;;;;;;;;;;;21.54;100.00;98523.44;5054449;28;20001;-82
2021/08/01 09:32:15;;;;;;;;;;;;;;;21.76;100.00;98532.09;5053680;28;19924;-83
2021/08/01 09:34:49;;;;;;;;;;;;;;;21.98;100.00;98537.03;5086633;28;20261;-82
2021/08/01 09:37:32;;;;;;;;;;;;;;;21.95;100.00;98536.03;5051631;28;19952;-79
2021/08/01 09:40:07;;;;;;;;;;;;;;;22.34;100.00;98528.31;5051065;28;19931;-80
2021/08/01 09:42:38;;;;;;;;;;;;;;;22.21;100.00;98533.75;5050392;28;20403;-78
2021/08/01 09:45:16;;;;;;;;;;;;;;;22.10;100.00;98532.97;5052367;28;19951;-78
2021/08/01 09:47:44;;;;;;;;;;;;;;;21.95;100.00;98535.22;5053025;28;19931;-78
2021/08/01 09:50:13;;;;;;;;;;;;;;;21.62;100.00;98544.41;5053174;28;19929;-78
2021/08/01 09:52:41;;;;;;;;;;;;;;;21.14;100.00;98544.41;5052348;28;20087;-78
2021/08/01 09:55:19;;;;;;;;;;;;;;;20.95;100.00;98540.41;5053427;28;20027;-78
2021/08/01 09:57:54;;;;;;;;;;;;;;;20.96;100.00;98555.41;5052147;28;19940;-78
2021/08/01 10:00:23;;;;;;;;;;;;;;;20.40;100.00;98559.81;5051170;28;19965;-79
2021/08/01 10:02:50;;;;;;;;;;;;;;;20.48;100.00;98560.13;5033718;28;19951;-79
2021/08/01 10:05:19;;;;;;;;;;;;;;;20.43;100.00;98570.16;5049196;28;19984;-79
2021/08/01 10:07:47;;;;;;;;;;;;;;;20.47;100.00;98575.59;5045342;28;19944;-79
2021/08/01 10:10:16;;;;;;;;;;;;;;;20.44;100.00;98565.25;5053212;28;19928;-82
2021/08/01 10:12:44;;;;;;;;;;;;;;;20.89;100.00;98572.88;5053849;28;20014;-83
2021/08/01 10:15:12;;;;;;;;;;;;;;;21.05;100.00;98563.72;5053442;28;20020;-84
2021/08/01 10:17:39;;;;;;;;;;;;;;;20.94;100.00;98569.28;5051402;28;19994;-79
2021/08/01 10:20:06;;;;;;;;;;;;;;;21.06;100.00;98573.78;5059369;28;19924;-80
2021/08/01 10:22:38;;;;;;;;;;;;;;;21.50;100.00;98567.59;5057148;28;19925;-80
2021/08/01 10:25:16;;;;;;;;;;;;;;;21.52;100.00;98562.19;5053105;28;19975;-80
2021/08/01 10:27:46;;;;;;;;;;;;;;;20.95;100.00;98571.66;5051111;28;19924;-80
2021/08/01 10:30:18;;;;;;;;;;;;;;;21.39;100.00;98571.16;5043755;28;19932;-80
2021/08/01 10:32:48;;;;;;;;;;;;;;;21.93;100.00;98564.19;5052139;28;20033;-80
2021/08/01 10:35:21;;;;;;;;;;;;;;;21.96;100.00;98568.84;5051833;28;19929;-80
2021/08/01 10:37:54;;;;;;;;;;;;;;;22.16;100.00;98573.59;5053118;28;19931;-80
2021/08/01 10:40:23;;;;;;;;;;;;;;;21.72;100.00;98559.19;5085437;28;19931;-80
2021/08/01 10:42:51;;;;;;;;;;;;;;;20.53;100.00;98562.25;5052643;28;20132;-80
2021/08/01 10:45:20;;;;;;;;;;;;;;;20.92;100.00;98569.78;5050803;28;19933;-79
2021/08/01 10:47:49;;;;;;;;;;;;;;;21.60;100.00;98564.03;5052988;28;19994;-79
2021/08/01 10:50:17;;;;;;;;;;;;;;;21.18;100.00;98575.44;5052846;28;19932;-79
2021/08/01 10:52:44;;;;;;;;;;;;;;;21.23;100.00;98574.69;5053543;28;19928;-84
2021/08/01 10:55:21;;;;;;;;;;;;;;;20.26;100.00;98576.94;5053317;28;19936;-82
2021/08/01 10:58:07;;;;;;;;;;;;;;;20.60;100.00;98579.59;5035699;28;19924;-83
2021/08/01 11:00:54;;;;;;;;;;;;;;;19.87;100.00;98578.56;5052427;28;19936;-80
2021/08/01 11:03:21;;;;;;;;;;;;;;;20.35;100.00;98574.72;5047479;28;19935;-79
2021/08/01 11:05:49;;;;;;;;;;;;;;;20.50;100.00;98574.59;5054681;28;19925;-82
2021/08/01 11:08:17;;;;;;;;;;;;;;;20.57;100.00;98577.00;5052481;28;20058;-88
2021/08/01 11:10:44;;;;;;;;;;;;;;;21.04;100.00;98577.16;5051682;28;19924;-82
2021/08/01 11:13:24;;;;;;;;;;;;;;;21.09;100.00;98569.94;5051634;28;20391;-82
2021/08/01 11:15:52;;;;;;;;;;;;;;;21.45;100.00;98579.72;5035743;28;19925;-85
2021/08/01 11:18:45;;;;;;;;;;;;;;;21.06;100.00;98582.31;5038692;28;20403;-83
2021/08/01 11:21:32;;;;;;;;;;;;;;;21.34;100.00;98580.44;5051102;28;20015;-85
2021/08/01 11:24:00;;;;;;;;;;;;;;;21.91;100.00;98583.06;5037204;28;19968;-89
2021/08/01 11:26:28;;;;;;;;;;;;;;;21.47;100.00;98583.63;5035454;28;19925;-86
2021/08/01 11:29:03;;;;;;;;;;;;;;;21.39;100.00;98593.91;5052102;28;19925;-86
2021/08/01 11:31:33;;;;;;;;;;;;;;;21.56;100.00;98591.94;5037669;28;20372;-95
2021/08/01 11:34:20;;;;;;;;;;;;;;;21.45;100.00;98591.84;5057154;28;19975;-93
2021/08/01 11:37:10;;;;;;;;;;;;;;;21.04;100.00;98601.91;5041873;28;19936;-93
2021/08/01 11:39:51;;;;;;;;;;;;;;;20.51;100.00;98615.88;5040682;28;19924;-91
2021/08/01 11:42:25;;;;;;;;;;;;;;;20.51;100.00;98622.34;5049658;28;19925;-87
2021/08/01 11:44:57;;;;;;;;;;;;;;;20.76;100.00;98610.22;5019980;28;19931;-85
2021/08/01 11:47:25;;;;;;;;;;;;;;;20.98;100.00;98618.13;5054827;28;19925;-83
2021/08/01 11:49:52;;;;;;;;;;;;;;;21.14;100.00;98611.81;5055345;28;20376;-83
2021/08/01 11:52:21;;;;;;;;;;;;;;;21.56;100.00;98603.31;5069399;28;19978;-85
2021/08/01 11:54:52;;;;;;;;;;;;;;;21.70;100.00;98605.19;5049654;28;20028;-83
2021/08/01 11:57:20;;;;;;;;;;;;;;;22.19;100.00;98604.63;5038556;28;20346;-82
2021/08/01 11:59:52;;;;;;;;;;;;;;;22.34;100.00;98619.41;5055192;28;19925;-82
2021/08/01 12:02:19;;;;;;;;;;;;;;;21.36;100.00;98614.78;5037510;28;19932;-82
2021/08/01 12:04:53;;;;;;;;;;;;;;;21.79;100.00;98613.53;5034689;28;20074;-82
2021/08/01 12:07:21;;;;;;;;;;;;;;;22.28;100.00;98612.16;5052945;28;20330;-82
2021/08/01 12:09:48;;;;;;;;;;;;;;;22.32;100.00;98618.38;5052988;28;19932;-82
2021/08/01 12:12:25;;;;;;;;;;;;;;;21.94;100.00;98616.94;5054716;28;20406;-82
2021/08/01 12:14:54;;;;;;;;;;;;;;;21.40;100.00;98613.28;5053683;28;19925;-82
2021/08/01 12:17:22;;;;;;;;;;;;;;;21.65;100.00;98622.19;5053729;28;19928;-82
2021/08/01 12:19:51;;;;;;;;;;;;;;;21.14;100.00;98623.94;5053438;28;20368;-82
2021/08/01 12:22:20;;;;;;;;;;;;;;;21.34;100.00;98623.84;5070132;28;19929;-82
2021/08/01 12:24:56;;;;;;;;;;;;;;;22.21;100.00;98624.81;5053535;28;19932;-82
2021/08/01 12:27:24;;;;;;;;;;;;;;;21.45;100.00;98623.13;5070402;28;20019;-82
2021/08/01 12:30:01;;;;;;;;;;;;;;;21.94;100.00;98628.34;5036688;28;19924;-82
2021/08/01 12:32:44;;;;;;;;;;;;;;;21.65;100.00;98628.66;5070167;28;19929;-82
2021/08/01 12:35:22;;;;;;;;;;;;;;;21.58;100.00;98629.16;5069773;28;19928;-82
2021/08/01 12:37:49;;;;;;;;;;;;;;;22.07;100.00;98639.25;5036855;28;19974;-81
2021/08/01 12:40:28;;;;;;;;;;;;;;;22.68;100.00;98632.44;5036609;28;19925;-83
2021/08/01 12:43:00;;;;;;;;;;;;;;;21.80;100.00;98631.34;5052988;28;19932;-82
2021/08/01 12:45:30;;;;;;;;;;;;;;;22.35;100.00;98635.19;5054231;28;19925;-83
2021/08/01 12:47:58;;;;;;;;;;;;;;;22.05;100.00;98639.75;5054529;28;19931;-82
2021/08/01 12:50:26;;;;;;;;;;;;;;;21.45;100.00;98643.00;5053181;28;19974;-82